sensor_id;sensor_type;location;lat;lon;timestamp;temperature;humidity
12264;DHT22;6194;49.010;8.414;2023-06-24T00:00:30;17.60;99.90
12264;DHT22;6194;49.010;8.414;2023-06-24T00:02:56;17.60;99.90
12264;DHT22;6194;49.010;8.414;2023-06-24T00:05:23;17.70;99.90
12264;DHT22;6194;49.010;8.414;2023-06-24T00:07:49;17.70;99.90
12264;DHT22;6194;49.010;8.414;2023-06-24T00:10:15;17.70;99.90
12264;DHT22;6194;49.010;8.414;2023-06-24T00:12:41;17.80;99.90
12264;DHT22;6194;49.010;8.414;2023-06-24T00:15:08;17.80;99.90
12264;DHT22;6194;49.010;8.414;2023-06-24T00:17:37;17.80;99.90
12264;DHT22;6194;49.010;8.414;2023-06-24T00:20:03;17.80;99.90
12264;DHT22;6194;49.010;8.414;2023-06-24T00:22:37;17.70;99.90
12264;DHT22;6194;49.010;8.414;2023-06-24T00:25:09;17.70;99.90
12264;DHT22;6194;49.010;8.414;2023-06-24T00:27:35;17.90;99.90
12264;DHT22;6194;49.010;8.414;2023-06-24T00:30:01;18.00;99.90
12264;DHT22;6194;49.010;8.414;2023-06-24T00:32:26;18.00;99.90
12264;DHT22;6194;49.010;8.414;2023-06-24T00:34:52;18.00;99.90
12264;DHT22;6194;49.010;8.414;2023-06-24T00:37:17;17.90;99.90
12264;DHT22;6194;49.010;8.414;2023-06-24T00:39:43;17.90;99.90
12264;DHT22;6194;49.010;8.414;2023-06-24T00:42:09;17.90;99.90
12264;DHT22;6194;49.010;8.414;2023-06-24T00:44:35;17.90;99.90
12264;DHT22;6194;49.010;8.414;2023-06-24T00:47:03;18.00;99.90
12264;DHT22;6194;49.010;8.414;2023-06-24T00:49:28;18.00;99.90
12264;DHT22;6194;49.010;8.414;2023-06-24T00:51:54;17.90;99.90
12264;DHT22;6194;49.010;8.414;2023-06-24T00:54:21;17.90;99.90
12264;DHT22;6194;49.010;8.414;2023-06-24T00:56:46;17.80;99.90
12264;DHT22;6194;49.010;8.414;2023-06-24T00:59:13;17.70;99.90
12264;DHT22;6194;49.010;8.414;2023-06-24T01:01:40;17.60;99.90
12264;DHT22;6194;49.010;8.414;2023-06-24T01:04:06;17.60;99.90
12264;DHT22;6194;49.010;8.414;2023-06-24T01:06:35;17.50;99.90
12264;DHT22;6194;49.010;8.414;2023-06-24T01:09:02;17.40;99.90
12264;DHT22;6194;49.010;8.414;2023-06-24T01:11:29;17.40;99.90
12264;DHT22;6194;49.010;8.414;2023-06-24T01:13:55;17.30;99.90
12264;DHT22;6194;49.010;8.414;2023-06-24T01:16:52;17.30;99.90
12264;DHT22;6194;49.010;8.414;2023-06-24T01:33:17;17.20;99.90
12264;DHT22;6194;49.010;8.414;2023-06-24T01:35:46;17.10;99.90
12264;DHT22;6194;49.010;8.414;2023-06-24T01:38:24;17.10;99.90
12264;DHT22;6194;49.010;8.414;2023-06-24T01:40:52;17.00;99.90
12264;DHT22;6194;49.010;8.414;2023-06-24T01:43:19;17.10;99.90
12264;DHT22;6194;49.010;8.414;2023-06-24T01:45:50;16.90;99.90
12264;DHT22;6194;49.010;8.414;2023-06-24T01:48:19;16.90;99.90
12264;DHT22;6194;49.010;8.414;2023-06-24T01:51:09;16.80;99.90
12264;DHT22;6194;49.010;8.414;2023-06-24T01:53:38;16.70;99.90
12264;DHT22;6194;49.010;8.414;2023-06-24T01:56:07;16.70;99.90
12264;DHT22;6194;49.010;8.414;2023-06-24T01:58:36;16.70;99.90
12264;DHT22;6194;49.010;8.414;2023-06-24T02:01:02;16.60;99.90
12264;DHT22;6194;49.010;8.414;2023-06-24T02:03:29;16.60;99.90
12264;DHT22;6194;49.010;8.414;2023-06-24T02:05:57;16.40;99.90
12264;DHT22;6194;49.010;8.414;2023-06-24T02:08:24;16.60;99.90
12264;DHT22;6194;49.010;8.414;2023-06-24T02:10:51;16.40;99.90
12264;DHT22;6194;49.010;8.414;2023-06-24T02:13:17;16.30;99.90
12264;DHT22;6194;49.010;8.414;2023-06-24T02:15:45;16.20;99.90
12264;DHT22;6194;49.010;8.414;2023-06-24T02:18:12;16.10;99.90
12264;DHT22;6194;49.010;8.414;2023-06-24T02:20:41;16.00;99.90
12264;DHT22;6194;49.010;8.414;2023-06-24T02:23:09;16.00;99.90
12264;DHT22;6194;49.010;8.414;2023-06-24T02:25:36;16.00;99.90
12264;DHT22;6194;49.010;8.414;2023-06-24T02:28:05;16.00;99.90
12264;DHT22;6194;49.010;8.414;2023-06-24T02:30:31;15.90;99.90
12264;DHT22;6194;49.010;8.414;2023-06-24T02:32:57;15.90;99.90
12264;DHT22;6194;49.010;8.414;2023-06-24T02:35:23;15.80;99.90
12264;DHT22;6194;49.010;8.414;2023-06-24T02:37:49;15.70;99.90
12264;DHT22;6194;49.010;8.414;2023-06-24T02:40:14;15.60;99.90
12264;DHT22;6194;49.010;8.414;2023-06-24T02:42:40;15.60;99.90
12264;DHT22;6194;49.010;8.414;2023-06-24T02:45:06;15.50;99.90
12264;DHT22;6194;49.010;8.414;2023-06-24T02:47:33;15.60;99.90
12264;DHT22;6194;49.010;8.414;2023-06-24T02:50:02;15.50;99.90
12264;DHT22;6194;49.010;8.414;2023-06-24T02:52:28;15.50;99.90
12264;DHT22;6194;49.010;8.414;2023-06-24T02:54:56;15.50;99.90
12264;DHT22;6194;49.010;8.414;2023-06-24T02:57:22;15.50;99.90
12264;DHT22;6194;49.010;8.414;2023-06-24T02:59:49;15.40;99.90
12264;DHT22;6194;49.010;8.414;2023-06-24T03:02:16;15.30;99.90
12264;DHT22;6194;49.010;8.414;2023-06-24T03:04:42;15.30;99.90
12264;DHT22;6194;49.010;8.414;2023-06-24T03:07:09;15.30;99.90
12264;DHT22;6194;49.010;8.414;2023-06-24T03:09:35;15.20;99.90
12264;DHT22;6194;49.010;8.414;2023-06-24T03:12:01;15.20;99.90
12264;DHT22;6194;49.010;8.414;2023-06-24T03:14:27;15.30;99.90
12264;DHT22;6194;49.010;8.414;2023-06-24T03:16:52;15.20;99.90
12264;DHT22;6194;49.010;8.414;2023-06-24T03:19:18;15.50;99.90
12264;DHT22;6194;49.010;8.414;2023-06-24T03:21:43;15.20;99.90
12264;DHT22;6194;49.010;8.414;2023-06-24T03:24:09;15.20;99.90
12264;DHT22;6194;49.010;8.414;2023-06-24T03:26:37;15.30;99.90
12264;DHT22;6194;49.010;8.414;2023-06-24T03:29:03;15.30;99.90
12264;DHT22;6194;49.010;8.414;2023-06-24T03:31:29;15.40;99.90
12264;DHT22;6194;49.010;8.414;2023-06-24T03:33:55;15.30;99.90
12264;DHT22;6194;49.010;8.414;2023-06-24T03:36:21;15.40;99.90
12264;DHT22;6194;49.010;8.414;2023-06-24T03:38:46;15.50;99.90
12264;DHT22;6194;49.010;8.414;2023-06-24T03:41:12;15.50;99.90
12264;DHT22;6194;49.010;8.414;2023-06-24T03:43:38;15.70;99.90
12264;DHT22;6194;49.010;8.414;2023-06-24T03:46:04;16.10;99.90
12264;DHT22;6194;49.010;8.414;2023-06-24T03:48:29;16.30;99.90
12264;DHT22;6194;49.010;8.414;2023-06-24T03:50:55;16.50;99.90
12264;DHT22;6194;49.010;8.414;2023-06-24T03:53:20;16.60;99.90
12264;DHT22;6194;49.010;8.414;2023-06-24T03:55:46;16.90;99.90
12264;DHT22;6194;49.010;8.414;2023-06-24T03:58:11;16.70;99.90
12264;DHT22;6194;49.010;8.414;2023-06-24T04:00:39;16.60;99.90
12264;DHT22;6194;49.010;8.414;2023-06-24T04:03:06;16.50;99.90
12264;DHT22;6194;49.010;8.414;2023-06-24T04:05:33;16.60;99.90
12264;DHT22;6194;49.010;8.414;2023-06-24T04:07:58;16.70;99.90
12264;DHT22;6194;49.010;8.414;2023-06-24T04:10:24;16.90;99.90
12264;DHT22;6194;49.010;8.414;2023-06-24T04:12:50;17.00;99.90
12264;DHT22;6194;49.010;8.414;2023-06-24T04:15:15;17.20;99.90
12264;DHT22;6194;49.010;8.414;2023-06-24T04:17:41;17.20;99.90
12264;DHT22;6194;49.010;8.414;2023-06-24T04:20:07;17.40;99.90
12264;DHT22;6194;49.010;8.414;2023-06-24T04:22:40;17.70;99.90
12264;DHT22;6194;49.010;8.414;2023-06-24T04:25:06;18.10;99.90
12264;DHT22;6194;49.010;8.414;2023-06-24T04:27:33;18.40;99.90
12264;DHT22;6194;49.010;8.414;2023-06-24T04:29:59;18.50;99.90
12264;DHT22;6194;49.010;8.414;2023-06-24T04:32:25;18.50;99.90
12264;DHT22;6194;49.010;8.414;2023-06-24T04:34:51;18.40;99.90
12264;DHT22;6194;49.010;8.414;2023-06-24T04:37:16;18.40;99.90
12264;DHT22;6194;49.010;8.414;2023-06-24T04:39:43;18.40;99.90
12264;DHT22;6194;49.010;8.414;2023-06-24T04:42:12;18.50;99.90
12264;DHT22;6194;49.010;8.414;2023-06-24T04:44:37;18.70;99.90
12264;DHT22;6194;49.010;8.414;2023-06-24T04:47:03;18.90;99.90
12264;DHT22;6194;49.010;8.414;2023-06-24T04:49:29;19.10;99.90
12264;DHT22;6194;49.010;8.414;2023-06-24T04:51:54;19.30;99.90
12264;DHT22;6194;49.010;8.414;2023-06-24T04:54:20;19.50;99.90
12264;DHT22;6194;49.010;8.414;2023-06-24T04:56:45;19.70;99.90
12264;DHT22;6194;49.010;8.414;2023-06-24T04:59:13;19.80;99.90
12264;DHT22;6194;49.010;8.414;2023-06-24T05:01:39;19.90;99.90
12264;DHT22;6194;49.010;8.414;2023-06-24T05:04:04;20.30;99.90
12264;DHT22;6194;49.010;8.414;2023-06-24T05:06:30;20.50;99.90
12264;DHT22;6194;49.010;8.414;2023-06-24T05:08:56;20.80;99.90
12264;DHT22;6194;49.010;8.414;2023-06-24T05:11:21;21.10;99.90
12264;DHT22;6194;49.010;8.414;2023-06-24T05:13:47;21.40;99.90
12264;DHT22;6194;49.010;8.414;2023-06-24T05:16:13;21.80;99.90
12264;DHT22;6194;49.010;8.414;2023-06-24T05:18:38;21.90;99.90
12264;DHT22;6194;49.010;8.414;2023-06-24T05:21:04;22.30;99.90
12264;DHT22;6194;49.010;8.414;2023-06-24T05:23:29;22.60;99.90
12264;DHT22;6194;49.010;8.414;2023-06-24T05:25:55;22.70;99.90
12264;DHT22;6194;49.010;8.414;2023-06-24T05:28:20;23.00;99.90
12264;DHT22;6194;49.010;8.414;2023-06-24T05:30:46;23.30;99.90
12264;DHT22;6194;49.010;8.414;2023-06-24T05:33:12;23.30;99.90
12264;DHT22;6194;49.010;8.414;2023-06-24T05:35:37;23.40;99.90
12264;DHT22;6194;49.010;8.414;2023-06-24T05:38:06;24.00;99.90
12264;DHT22;6194;49.010;8.414;2023-06-24T05:40:32;24.20;99.90
12264;DHT22;6194;49.010;8.414;2023-06-24T05:42:57;24.30;99.90
12264;DHT22;6194;49.010;8.414;2023-06-24T05:45:23;24.60;99.90
12264;DHT22;6194;49.010;8.414;2023-06-24T05:47:48;24.50;99.90
12264;DHT22;6194;49.010;8.414;2023-06-24T05:50:14;24.90;99.90
12264;DHT22;6194;49.010;8.414;2023-06-24T05:52:40;25.30;99.90
12264;DHT22;6194;49.010;8.414;2023-06-24T05:55:05;25.40;99.90
12264;DHT22;6194;49.010;8.414;2023-06-24T05:57:31;25.90;99.90
12264;DHT22;6194;49.010;8.414;2023-06-24T05:59:57;26.40;99.90
12264;DHT22;6194;49.010;8.414;2023-06-24T06:02:22;26.50;99.90
12264;DHT22;6194;49.010;8.414;2023-06-24T06:04:48;26.80;99.90
12264;DHT22;6194;49.010;8.414;2023-06-24T06:07:14;27.20;99.90
12264;DHT22;6194;49.010;8.414;2023-06-24T06:09:40;27.40;99.90
12264;DHT22;6194;49.010;8.414;2023-06-24T06:12:06;27.60;99.90
12264;DHT22;6194;49.010;8.414;2023-06-24T06:14:32;28.00;99.90
12264;DHT22;6194;49.010;8.414;2023-06-24T06:16:57;28.40;99.90
12264;DHT22;6194;49.010;8.414;2023-06-24T06:19:23;28.90;99.90
12264;DHT22;6194;49.010;8.414;2023-06-24T06:21:49;28.80;99.90
12264;DHT22;6194;49.010;8.414;2023-06-24T06:24:15;29.40;99.90
12264;DHT22;6194;49.010;8.414;2023-06-24T06:26:44;30.20;99.90
12264;DHT22;6194;49.010;8.414;2023-06-24T06:29:13;30.30;99.90
12264;DHT22;6194;49.010;8.414;2023-06-24T06:31:38;30.80;99.90
12264;DHT22;6194;49.010;8.414;2023-06-24T06:34:04;30.20;99.90
12264;DHT22;6194;49.010;8.414;2023-06-24T06:36:30;30.40;99.90
12264;DHT22;6194;49.010;8.414;2023-06-24T06:38:56;30.70;99.20
12264;DHT22;6194;49.010;8.414;2023-06-24T06:41:22;30.20;98.90
12264;DHT22;6194;49.010;8.414;2023-06-24T06:43:51;30.40;98.80
12264;DHT22;6194;49.010;8.414;2023-06-24T06:46:17;30.40;98.40
12264;DHT22;6194;49.010;8.414;2023-06-24T06:48:42;30.60;98.00
12264;DHT22;6194;49.010;8.414;2023-06-24T06:51:08;30.80;97.50
12264;DHT22;6194;49.010;8.414;2023-06-24T06:53:33;31.00;96.90
12264;DHT22;6194;49.010;8.414;2023-06-24T06:55:59;31.20;97.00
12264;DHT22;6194;49.010;8.414;2023-06-24T06:58:24;32.00;96.00
12264;DHT22;6194;49.010;8.414;2023-06-24T07:00:50;33.30;94.80
12264;DHT22;6194;49.010;8.414;2023-06-24T07:03:16;33.00;93.30
12264;DHT22;6194;49.010;8.414;2023-06-24T07:05:41;32.90;93.10
12264;DHT22;6194;49.010;8.414;2023-06-24T07:08:07;33.40;92.50
12264;DHT22;6194;49.010;8.414;2023-06-24T07:10:33;32.90;92.20
12264;DHT22;6194;49.010;8.414;2023-06-24T07:12:58;32.70;92.00
12264;DHT22;6194;49.010;8.414;2023-06-24T07:15:27;33.60;91.10
12264;DHT22;6194;49.010;8.414;2023-06-24T07:17:53;33.90;90.40
12264;DHT22;6194;49.010;8.414;2023-06-24T07:20:20;34.40;88.30
12264;DHT22;6194;49.010;8.414;2023-06-24T07:22:47;35.00;86.00
12264;DHT22;6194;49.010;8.414;2023-06-24T07:25:12;35.20;85.30
12264;DHT22;6194;49.010;8.414;2023-06-24T07:27:38;35.10;85.20
12264;DHT22;6194;49.010;8.414;2023-06-24T07:30:05;34.80;84.50
12264;DHT22;6194;49.010;8.414;2023-06-24T07:32:30;34.00;84.70
12264;DHT22;6194;49.010;8.414;2023-06-24T07:34:56;32.50;85.80
12264;DHT22;6194;49.010;8.414;2023-06-24T07:37:22;32.20;86.50
12264;DHT22;6194;49.010;8.414;2023-06-24T07:39:48;33.10;86.70
12264;DHT22;6194;49.010;8.414;2023-06-24T07:42:13;33.60;84.20
12264;DHT22;6194;49.010;8.414;2023-06-24T07:44:46;32.90;85.30
12264;DHT22;6194;49.010;8.414;2023-06-24T07:47:12;32.70;84.70
12264;DHT22;6194;49.010;8.414;2023-06-24T07:49:38;32.90;85.70
12264;DHT22;6194;49.010;8.414;2023-06-24T07:52:03;33.70;84.20
12264;DHT22;6194;49.010;8.414;2023-06-24T07:54:30;32.90;83.90
12264;DHT22;6194;49.010;8.414;2023-06-24T07:56:56;31.50;86.10
12264;DHT22;6194;49.010;8.414;2023-06-24T07:59:21;32.00;85.60
12264;DHT22;6194;49.010;8.414;2023-06-24T08:01:47;32.30;84.70
12264;DHT22;6194;49.010;8.414;2023-06-24T08:04:13;31.90;86.40
12264;DHT22;6194;49.010;8.414;2023-06-24T08:06:38;33.50;83.70
12264;DHT22;6194;49.010;8.414;2023-06-24T08:09:04;34.70;81.30
12264;DHT22;6194;49.010;8.414;2023-06-24T08:11:30;34.70;79.30
12264;DHT22;6194;49.010;8.414;2023-06-24T08:13:55;34.00;80.00
12264;DHT22;6194;49.010;8.414;2023-06-24T08:16:21;33.80;82.00
12264;DHT22;6194;49.010;8.414;2023-06-24T08:18:46;34.40;80.80
12264;DHT22;6194;49.010;8.414;2023-06-24T08:21:12;34.50;79.10
12264;DHT22;6194;49.010;8.414;2023-06-24T08:23:37;34.10;77.90
12264;DHT22;6194;49.010;8.414;2023-06-24T08:26:03;34.50;77.40
12264;DHT22;6194;49.010;8.414;2023-06-24T08:28:29;33.50;79.80
12264;DHT22;6194;49.010;8.414;2023-06-24T08:30:54;33.10;80.60
12264;DHT22;6194;49.010;8.414;2023-06-24T08:33:20;33.00;80.20
12264;DHT22;6194;49.010;8.414;2023-06-24T08:35:45;32.90;80.10
12264;DHT22;6194;49.010;8.414;2023-06-24T08:38:11;32.80;78.80
12264;DHT22;6194;49.010;8.414;2023-06-24T08:40:37;32.40;80.00
12264;DHT22;6194;49.010;8.414;2023-06-24T08:43:06;32.00;79.50
12264;DHT22;6194;49.010;8.414;2023-06-24T08:45:31;32.40;78.20
12264;DHT22;6194;49.010;8.414;2023-06-24T08:47:58;31.90;79.30
12264;DHT22;6194;49.010;8.414;2023-06-24T08:50:31;31.10;80.90
12264;DHT22;6194;49.010;8.414;2023-06-24T08:53:00;30.90;82.50
12264;DHT22;6194;49.010;8.414;2023-06-24T08:55:30;30.10;82.90
12264;DHT22;6194;49.010;8.414;2023-06-24T08:57:57;30.00;84.10
12264;DHT22;6194;49.010;8.414;2023-06-24T09:00:23;29.50;84.60
12264;DHT22;6194;49.010;8.414;2023-06-24T09:02:49;30.00;84.30
12264;DHT22;6194;49.010;8.414;2023-06-24T09:05:15;29.60;84.70
12264;DHT22;6194;49.010;8.414;2023-06-24T09:07:41;29.50;85.20
12264;DHT22;6194;49.010;8.414;2023-06-24T09:10:06;29.40;83.80
12264;DHT22;6194;49.010;8.414;2023-06-24T09:12:33;29.50;84.70
12264;DHT22;6194;49.010;8.414;2023-06-24T09:14:59;29.60;84.90
12264;DHT22;6194;49.010;8.414;2023-06-24T09:17:25;29.10;86.70
12264;DHT22;6194;49.010;8.414;2023-06-24T09:19:51;29.40;84.70
12264;DHT22;6194;49.010;8.414;2023-06-24T09:22:17;29.10;84.90
12264;DHT22;6194;49.010;8.414;2023-06-24T09:24:45;29.00;84.90
12264;DHT22;6194;49.010;8.414;2023-06-24T09:27:15;29.00;84.30
12264;DHT22;6194;49.010;8.414;2023-06-24T09:29:42;29.50;83.60
12264;DHT22;6194;49.010;8.414;2023-06-24T09:32:09;29.70;84.50
12264;DHT22;6194;49.010;8.414;2023-06-24T09:34:35;29.70;84.70
12264;DHT22;6194;49.010;8.414;2023-06-24T09:37:01;29.30;84.50
12264;DHT22;6194;49.010;8.414;2023-06-24T09:39:27;29.10;85.30
12264;DHT22;6194;49.010;8.414;2023-06-24T09:41:57;29.20;83.00
12264;DHT22;6194;49.010;8.414;2023-06-24T09:44:24;29.10;84.00
12264;DHT22;6194;49.010;8.414;2023-06-24T09:46:49;29.00;84.00
12264;DHT22;6194;49.010;8.414;2023-06-24T09:49:15;29.00;83.70
12264;DHT22;6194;49.010;8.414;2023-06-24T09:51:48;29.00;82.90
12264;DHT22;6194;49.010;8.414;2023-06-24T09:54:15;28.80;80.60
12264;DHT22;6194;49.010;8.414;2023-06-24T09:56:47;28.60;82.40
12264;DHT22;6194;49.010;8.414;2023-06-24T09:59:13;28.50;83.40
12264;DHT22;6194;49.010;8.414;2023-06-24T10:01:41;28.10;84.10
12264;DHT22;6194;49.010;8.414;2023-06-24T10:04:09;28.00;83.70
12264;DHT22;6194;49.010;8.414;2023-06-24T10:06:36;27.90;84.50
12264;DHT22;6194;49.010;8.414;2023-06-24T10:09:02;28.10;84.10
12264;DHT22;6194;49.010;8.414;2023-06-24T10:11:27;27.90;84.40
12264;DHT22;6194;49.010;8.414;2023-06-24T10:13:53;27.80;84.70
12264;DHT22;6194;49.010;8.414;2023-06-24T10:16:20;28.20;81.80
12264;DHT22;6194;49.010;8.414;2023-06-24T10:18:46;28.10;83.60
12264;DHT22;6194;49.010;8.414;2023-06-24T10:21:12;27.90;84.30
12264;DHT22;6194;49.010;8.414;2023-06-24T10:26:10;27.80;83.10
12264;DHT22;6194;49.010;8.414;2023-06-24T10:39:37;27.50;84.00
12264;DHT22;6194;49.010;8.414;2023-06-24T10:45:01;27.40;83.30
12264;DHT22;6194;49.010;8.414;2023-06-24T10:47:28;27.40;82.50
12264;DHT22;6194;49.010;8.414;2023-06-24T10:49:54;27.40;82.70
12264;DHT22;6194;49.010;8.414;2023-06-24T10:52:20;27.40;82.30
12264;DHT22;6194;49.010;8.414;2023-06-24T10:54:47;27.40;80.90
12264;DHT22;6194;49.010;8.414;2023-06-24T10:57:13;27.50;81.50
12264;DHT22;6194;49.010;8.414;2023-06-24T10:59:46;27.60;83.40
12264;DHT22;6194;49.010;8.414;2023-06-24T11:02:16;27.60;81.80
12264;DHT22;6194;49.010;8.414;2023-06-24T11:04:49;27.30;83.10
12264;DHT22;6194;49.010;8.414;2023-06-24T11:07:27;27.30;82.90
12264;DHT22;6194;49.010;8.414;2023-06-24T11:09:55;27.40;83.20
12264;DHT22;6194;49.010;8.414;2023-06-24T11:12:25;27.50;83.10
12264;DHT22;6194;49.010;8.414;2023-06-24T11:14:51;27.60;83.00
12264;DHT22;6194;49.010;8.414;2023-06-24T11:17:19;27.70;82.00
12264;DHT22;6194;49.010;8.414;2023-06-24T11:19:45;27.80;82.10
12264;DHT22;6194;49.010;8.414;2023-06-24T11:22:11;28.00;81.80
12264;DHT22;6194;49.010;8.414;2023-06-24T11:24:37;28.00;81.40
12264;DHT22;6194;49.010;8.414;2023-06-24T11:27:05;28.10;81.30
12264;DHT22;6194;49.010;8.414;2023-06-24T11:29:31;28.00;81.20
12264;DHT22;6194;49.010;8.414;2023-06-24T11:31:57;28.00;81.20
12264;DHT22;6194;49.010;8.414;2023-06-24T11:34:23;28.00;81.90
12264;DHT22;6194;49.010;8.414;2023-06-24T11:36:49;28.10;81.70
12264;DHT22;6194;49.010;8.414;2023-06-24T11:41:47;27.90;81.50
12264;DHT22;6194;49.010;8.414;2023-06-24T11:44:13;27.90;81.90
12264;DHT22;6194;49.010;8.414;2023-06-24T11:46:40;27.70;81.10
12264;DHT22;6194;49.010;8.414;2023-06-24T11:49:06;27.40;81.50
12264;DHT22;6194;49.010;8.414;2023-06-24T11:51:33;27.50;81.90
12264;DHT22;6194;49.010;8.414;2023-06-24T11:54:00;27.80;81.40
12264;DHT22;6194;49.010;8.414;2023-06-24T11:56:40;27.90;80.70
12264;DHT22;6194;49.010;8.414;2023-06-24T11:59:26;28.00;78.70
12264;DHT22;6194;49.010;8.414;2023-06-24T12:01:56;28.00;79.90
12264;DHT22;6194;49.010;8.414;2023-06-24T12:04:29;28.00;79.60
12264;DHT22;6194;49.010;8.414;2023-06-24T12:06:55;28.20;78.90
12264;DHT22;6194;49.010;8.414;2023-06-24T12:09:21;28.20;78.60
12264;DHT22;6194;49.010;8.414;2023-06-24T12:11:47;28.10;79.50
12264;DHT22;6194;49.010;8.414;2023-06-24T12:14:12;28.10;80.60
12264;DHT22;6194;49.010;8.414;2023-06-24T12:16:39;28.10;80.00
12264;DHT22;6194;49.010;8.414;2023-06-24T12:19:06;28.10;78.80
12264;DHT22;6194;49.010;8.414;2023-06-24T12:21:31;28.20;77.20
12264;DHT22;6194;49.010;8.414;2023-06-24T12:23:57;28.20;78.50
12264;DHT22;6194;49.010;8.414;2023-06-24T12:26:23;28.20;78.40
12264;DHT22;6194;49.010;8.414;2023-06-24T12:28:48;28.20;78.50
12264;DHT22;6194;49.010;8.414;2023-06-24T12:31:14;28.20;79.30
12264;DHT22;6194;49.010;8.414;2023-06-24T12:33:39;28.00;78.30
12264;DHT22;6194;49.010;8.414;2023-06-24T12:36:05;28.20;77.00
12264;DHT22;6194;49.010;8.414;2023-06-24T12:38:31;28.10;76.90
12264;DHT22;6194;49.010;8.414;2023-06-24T12:40:57;28.00;77.30
12264;DHT22;6194;49.010;8.414;2023-06-24T12:43:23;28.00;76.90
12264;DHT22;6194;49.010;8.414;2023-06-24T12:45:49;27.90;78.40
12264;DHT22;6194;49.010;8.414;2023-06-24T12:48:16;28.00;76.80
12264;DHT22;6194;49.010;8.414;2023-06-24T12:50:42;28.20;74.60
12264;DHT22;6194;49.010;8.414;2023-06-24T12:53:08;28.20;74.50
12264;DHT22;6194;49.010;8.414;2023-06-24T12:55:36;28.30;73.60
12264;DHT22;6194;49.010;8.414;2023-06-24T12:58:01;28.40;75.00
12264;DHT22;6194;49.010;8.414;2023-06-24T13:00:27;28.40;75.60
12264;DHT22;6194;49.010;8.414;2023-06-24T13:02:53;28.40;76.10
12264;DHT22;6194;49.010;8.414;2023-06-24T13:05:19;28.20;76.00
12264;DHT22;6194;49.010;8.414;2023-06-24T13:07:44;28.20;76.40
12264;DHT22;6194;49.010;8.414;2023-06-24T13:10:10;28.20;76.80
12264;DHT22;6194;49.010;8.414;2023-06-24T13:12:36;28.30;77.00
12264;DHT22;6194;49.010;8.414;2023-06-24T13:15:03;28.30;76.70
12264;DHT22;6194;49.010;8.414;2023-06-24T13:17:30;28.30;77.20
12264;DHT22;6194;49.010;8.414;2023-06-24T13:19:55;28.50;75.70
12264;DHT22;6194;49.010;8.414;2023-06-24T13:22:22;28.70;75.80
12264;DHT22;6194;49.010;8.414;2023-06-24T13:24:47;28.70;74.80
12264;DHT22;6194;49.010;8.414;2023-06-24T13:27:13;28.70;75.70
12264;DHT22;6194;49.010;8.414;2023-06-24T13:29:39;28.70;74.70
12264;DHT22;6194;49.010;8.414;2023-06-24T13:32:04;28.70;74.20
12264;DHT22;6194;49.010;8.414;2023-06-24T13:34:30;28.80;74.30
12264;DHT22;6194;49.010;8.414;2023-06-24T13:36:56;28.80;74.60
12264;DHT22;6194;49.010;8.414;2023-06-24T13:39:21;28.70;73.60
12264;DHT22;6194;49.010;8.414;2023-06-24T13:41:50;28.70;74.20
12264;DHT22;6194;49.010;8.414;2023-06-24T13:44:17;28.70;71.60
12264;DHT22;6194;49.010;8.414;2023-06-24T13:46:43;28.60;71.90
12264;DHT22;6194;49.010;8.414;2023-06-24T13:49:09;28.70;70.50
12264;DHT22;6194;49.010;8.414;2023-06-24T13:51:35;28.90;71.20
12264;DHT22;6194;49.010;8.414;2023-06-24T13:54:01;28.90;71.50
12264;DHT22;6194;49.010;8.414;2023-06-24T13:56:27;27.70;70.30
12264;DHT22;6194;49.010;8.414;2023-06-24T13:58:53;28.60;71.50
12264;DHT22;6194;49.010;8.414;2023-06-24T14:01:19;28.60;71.70
12264;DHT22;6194;49.010;8.414;2023-06-24T14:03:46;28.70;71.60
12264;DHT22;6194;49.010;8.414;2023-06-24T14:06:14;28.60;72.50
12264;DHT22;6194;49.010;8.414;2023-06-24T14:08:40;28.60;72.50
12264;DHT22;6194;49.010;8.414;2023-06-24T14:11:06;28.60;72.40
12264;DHT22;6194;49.010;8.414;2023-06-24T14:13:32;28.70;73.20
12264;DHT22;6194;49.010;8.414;2023-06-24T14:15:58;28.80;72.90
12264;DHT22;6194;49.010;8.414;2023-06-24T14:18:23;28.80;72.40
12264;DHT22;6194;49.010;8.414;2023-06-24T14:20:50;28.70;71.70
12264;DHT22;6194;49.010;8.414;2023-06-24T14:23:16;28.50;68.90
12264;DHT22;6194;49.010;8.414;2023-06-24T14:25:41;28.40;69.00
12264;DHT22;6194;49.010;8.414;2023-06-24T14:28:07;28.50;69.70
12264;DHT22;6194;49.010;8.414;2023-06-24T14:30:33;28.60;70.10
12264;DHT22;6194;49.010;8.414;2023-06-24T14:33:00;28.60;70.60
12264;DHT22;6194;49.010;8.414;2023-06-24T14:35:25;28.60;70.00
12264;DHT22;6194;49.010;8.414;2023-06-24T14:37:51;28.60;70.70
12264;DHT22;6194;49.010;8.414;2023-06-24T14:40:17;28.60;70.40
12264;DHT22;6194;49.010;8.414;2023-06-24T14:42:42;28.60;70.50
12264;DHT22;6194;49.010;8.414;2023-06-24T14:45:08;28.60;70.30
12264;DHT22;6194;49.010;8.414;2023-06-24T14:47:34;28.70;69.10
12264;DHT22;6194;49.010;8.414;2023-06-24T14:49:59;28.70;69.10
12264;DHT22;6194;49.010;8.414;2023-06-24T14:52:25;28.70;69.60
12264;DHT22;6194;49.010;8.414;2023-06-24T14:54:51;28.70;69.30
12264;DHT22;6194;49.010;8.414;2023-06-24T14:57:16;28.70;70.20
12264;DHT22;6194;49.010;8.414;2023-06-24T14:59:42;28.80;70.70
12264;DHT22;6194;49.010;8.414;2023-06-24T15:02:08;28.70;70.40
12264;DHT22;6194;49.010;8.414;2023-06-24T15:04:35;28.50;71.00
12264;DHT22;6194;49.010;8.414;2023-06-24T15:07:01;28.40;70.90
12264;DHT22;6194;49.010;8.414;2023-06-24T15:09:26;28.50;69.80
12264;DHT22;6194;49.010;8.414;2023-06-24T15:11:52;28.40;70.40
12264;DHT22;6194;49.010;8.414;2023-06-24T15:14:18;28.40;70.80
12264;DHT22;6194;49.010;8.414;2023-06-24T15:16:44;28.30;71.30
12264;DHT22;6194;49.010;8.414;2023-06-24T15:19:09;28.40;71.90
12264;DHT22;6194;49.010;8.414;2023-06-24T15:21:35;28.40;70.90
12264;DHT22;6194;49.010;8.414;2023-06-24T15:24:01;28.50;71.10
12264;DHT22;6194;49.010;8.414;2023-06-24T15:26:27;28.50;70.80
12264;DHT22;6194;49.010;8.414;2023-06-24T15:28:52;28.50;72.60
12264;DHT22;6194;49.010;8.414;2023-06-24T15:31:19;28.50;71.50
12264;DHT22;6194;49.010;8.414;2023-06-24T15:33:44;28.70;70.60
12264;DHT22;6194;49.010;8.414;2023-06-24T15:36:10;28.70;71.40
12264;DHT22;6194;49.010;8.414;2023-06-24T15:38:36;28.70;71.30
12264;DHT22;6194;49.010;8.414;2023-06-24T15:41:01;28.70;71.80
12264;DHT22;6194;49.010;8.414;2023-06-24T15:43:27;28.80;71.70
12264;DHT22;6194;49.010;8.414;2023-06-24T15:45:53;28.90;71.60
12264;DHT22;6194;49.010;8.414;2023-06-24T15:48:18;29.00;69.40
12264;DHT22;6194;49.010;8.414;2023-06-24T15:50:44;29.10;68.90
12264;DHT22;6194;49.010;8.414;2023-06-24T15:53:10;29.40;69.10
12264;DHT22;6194;49.010;8.414;2023-06-24T15:55:35;29.70;68.80
12264;DHT22;6194;49.010;8.414;2023-06-24T15:58:01;30.20;68.70
12264;DHT22;6194;49.010;8.414;2023-06-24T16:00:26;30.30;69.00
12264;DHT22;6194;49.010;8.414;2023-06-24T16:02:52;30.70;68.70
12264;DHT22;6194;49.010;8.414;2023-06-24T16:05:17;31.40;67.40
12264;DHT22;6194;49.010;8.414;2023-06-24T16:07:43;32.60;66.10
12264;DHT22;6194;49.010;8.414;2023-06-24T16:10:09;33.70;63.90
12264;DHT22;6194;49.010;8.414;2023-06-24T16:12:34;34.00;61.60